Time;durP1;ratioP1;P1;durP2;ratioP2;P2;SDS_P1;SDS_P2;PMS_P1;PMS_P2;Temp;Humidity;BMP_temperature;BMP_pressure;BME280_temperature;BME280_humidity;BME280_pressure;Samples;Min_cycle;Max_cycle;Signal;HPM_P1;HPM_P2
2022/10/31 00:01:15;;;;;;;;;13.75;13.50;;;;;15.84;63.34;101648.69;6190278;22;45361;-74
2022/10/31 00:03:40;;;;;;;;;15.75;15.00;;;;;15.83;63.20;101652.25;6216927;22;46725;-76
2022/10/31 00:06:06;;;;;;;;;15.50;14.00;;;;;15.89;63.40;101672.56;6217917;22;45178;-77
2022/10/31 00:08:32;;;;;;;;;13.00;12.00;;;;;15.75;63.63;101662.09;6218230;22;45261;-76
2022/10/31 00:10:57;;;;;;;;;17.50;17.00;;;;;15.74;64.35;101657.66;6190408;22;45219;-76
2022/10/31 00:13:22;;;;;;;;;19.00;16.50;;;;;15.65;64.60;101640.00;6217929;22;46274;-76
2022/10/31 00:15:48;;;;;;;;;18.75;17.25;;;;;15.86;64.52;101681.44;6190541;22;45309;-77
2022/10/31 00:18:13;;;;;;;;;18.50;16.00;;;;;15.80;64.31;101675.31;6218148;22;45367;-76
2022/10/31 00:20:39;;;;;;;;;21.00;20.00;;;;;15.68;64.30;101656.81;6216934;22;45398;-77
2022/10/31 00:23:06;;;;;;;;;20.25;19.25;;;;;15.82;64.56;101698.31;6217297;22;45478;-76
2022/10/31 00:25:37;;;;;;;;;17.75;17.50;;;;;15.78;64.54;101685.94;6189643;22;45403;-76
2022/10/31 00:28:04;;;;;;;;;28.75;24.75;;;;;15.59;64.92;101657.78;6217510;22;45344;-76
2022/10/31 00:30:30;;;;;;;;;36.00;30.50;;;;;15.66;64.71;101676.31;6217335;22;45453;-76
2022/10/31 00:32:55;;;;;;;;;37.50;34.00;;;;;15.68;64.50;101686.88;6190263;22;48075;-76
2022/10/31 00:35:21;;;;;;;;;17.00;15.50;;;;;15.63;65.03;101668.34;6190306;22;45327;-76
2022/10/31 00:37:46;;;;;;;;;25.50;20.75;;;;;15.65;65.51;101677.19;6190496;22;45340;-77
2022/10/31 00:40:12;;;;;;;;;17.25;17.25;;;;;15.51;65.59;101651.69;6217302;22;45281;-76
2022/10/31 00:42:39;;;;;;;;;22.75;20.00;;;;;15.60;65.21;101668.38;6217344;22;46118;-77
2022/10/31 00:45:05;;;;;;;;;15.00;15.00;;;;;15.56;65.44;101666.66;6217638;22;45166;-76
2022/10/31 00:47:30;;;;;;;;;18.75;16.50;;;;;15.55;65.87;101656.94;6190652;22;45243;-77
2022/10/31 00:49:55;;;;;;;;;15.00;14.00;;;;;15.55;66.27;101656.06;6217866;22;45159;-76
2022/10/31 00:52:21;;;;;;;;;19.00;16.75;;;;;15.63;66.25;101672.78;6217646;22;46177;-76
2022/10/31 00:54:46;;;;;;;;;16.50;14.25;;;;;15.58;66.18;101656.00;6217427;22;45155;-76
2022/10/31 00:57:11;;;;;;;;;16.25;15.25;;;;;15.63;66.21;101659.50;6217897;22;45146;-76
2022/10/31 00:59:37;;;;;;;;;16.25;15.25;;;;;15.68;66.56;101675.41;6190245;22;45407;-76
2022/10/31 01:02:02;;;;;;;;;17.25;14.75;;;;;15.63;66.40;101662.16;6217425;22;45309;-77
2022/10/31 01:04:27;;;;;;;;;18.50;16.75;;;;;15.57;66.39;101638.34;6217500;22;45194;-76
2022/10/31 01:06:53;;;;;;;;;17.50;16.75;;;;;15.65;66.33;101645.31;6217648;22;45366;-77
2022/10/31 01:09:18;;;;;;;;;17.75;16.50;;;;;15.72;66.43;101662.13;6217518;22;45389;-76
2022/10/31 01:11:44;;;;;;;;;16.75;16.75;;;;;15.65;66.17;101650.63;6217495;22;45307;-76
2022/10/31 01:14:10;;;;;;;;;16.00;14.75;;;;;15.69;65.94;101650.63;6217689;22;45328;-76
2022/10/31 01:16:35;;;;;;;;;19.25;19.25;;;;;15.60;66.26;101636.53;6217467;22;45206;-76
2022/10/31 01:19:00;;;;;;;;;19.50;18.50;;;;;15.67;65.92;101637.34;6217405;22;45359;-76
2022/10/31 01:21:28;;;;;;;;;21.50;18.00;;;;;15.74;66.39;101635.53;6217566;22;46208;-74
2022/10/31 01:23:54;;;;;;;;;23.75;22.00;;;;;15.76;65.76;101639.06;6217065;22;45259;-76
2022/10/31 01:26:27;;;;;;;;;27.75;24.75;;;;;15.73;65.78;101628.47;6217444;22;45201;-76
2022/10/31 01:28:55;;;;;;;;;18.00;16.75;;;;;15.65;65.99;101609.94;6216909;22;45474;-76
2022/10/31 01:31:25;;;;;;;;;20.00;17.25;;;;;15.64;66.35;101608.19;6188403;22;46990;-76
2022/10/31 01:33:50;;;;;;;;;18.25;17.75;;;;;15.74;66.03;101622.25;6217100;22;45332;-76
2022/10/31 01:36:21;;;;;;;;;19.50;18.75;;;;;15.78;66.58;101627.53;6217542;22;45343;-76
2022/10/31 01:38:47;;;;;;;;;18.00;15.50;;;;;15.72;66.18;101610.81;6217513;22;45503;-76
2022/10/31 01:41:16;;;;;;;;;20.00;17.25;;;;;15.68;66.44;101595.75;6216943;22;46345;-76
2022/10/31 01:43:44;;;;;;;;;18.50;17.75;;;;;15.73;66.15;101604.59;6216813;22;45343;-76
2022/10/31 01:46:10;;;;;;;;;14.50;11.75;;;;;15.68;66.23;101593.97;6217263;22;45145;-76
2022/10/31 01:48:36;;;;;;;;;20.50;18.00;;;;;15.74;66.57;101598.38;6189777;22;45443;-76
2022/10/31 01:51:04;;;;;;;;;17.50;16.25;;;;;15.74;66.78;101593.06;6216943;22;45341;-77
2022/10/31 01:53:31;;;;;;;;;16.50;15.50;;;;;15.71;66.20;101582.47;6216093;22;45213;-76
2022/10/31 01:55:58;;;;;;;;;12.75;12.75;;;;;15.78;66.23;101590.34;6217205;22;45359;-76
2022/10/31 01:58:30;;;;;;;;;14.50;14.00;;;;;15.70;66.33;101578.06;6189951;22;45197;-76
2022/10/31 02:00:58;;;;;;;;;18.00;17.00;;;;;15.86;66.45;101598.25;6217202;22;46377;-76
2022/10/31 02:03:25;;;;;;;;;16.00;14.00;;;;;15.84;66.52;101592.94;6216883;22;45217;-76
2022/10/31 02:05:54;;;;;;;;;13.25;12.25;;;;;15.78;66.26;101585.06;6189754;22;45251;-76
2022/10/31 02:08:30;;;;;;;;;17.50;15.00;;;;;15.80;66.59;101587.69;6189777;22;45347;-77
2022/10/31 02:10:57;;;;;;;;;21.50;17.50;;;;;15.82;66.58;101577.91;6216929;22;45350;-76
2022/10/31 02:13:24;;;;;;;;;19.25;17.75;;;;;15.88;66.74;101596.44;6216984;22;45205;-76
2022/10/31 02:15:53;;;;;;;;;21.75;20.50;;;;;15.83;66.62;101579.69;6216936;22;45182;-76
2022/10/31 02:18:20;;;;;;;;;22.50;19.00;;;;;15.88;66.69;101583.19;6189646;22;45413;-76
2022/10/31 02:21:04;;;;;;;;;17.75;17.25;;;;;16.02;66.40;101602.47;6216715;22;45509;-76
2022/10/31 02:24:08;;;;;;;;;18.75;18.75;;;;;15.99;66.36;101591.88;6216651;22;45376;-76
2022/10/31 02:26:45;;;;;;;;;16.00;15.00;;;;;15.90;66.37;101561.91;6182220;22;45547;-76
2022/10/31 02:29:32;;;;;;;;;20.00;19.75;;;;;16.04;66.55;101579.41;6216948;22;45371;-76
2022/10/31 02:32:07;;;;;;;;;20.25;20.25;;;;;15.96;66.40;101568.03;6189318;22;47684;-76
2022/10/31 02:34:58;;;;;;;;;20.75;19.00;;;;;15.98;66.38;101568.84;6189247;22;45217;-76
2022/10/31 02:37:35;;;;;;;;;19.75;18.75;;;;;15.98;66.42;101573.28;6189564;22;45373;-76
2022/10/31 02:40:25;;;;;;;;;19.50;18.50;;;;;16.10;66.61;101578.47;6216990;22;45257;-75
2022/10/31 02:43:02;;;;;;;;;22.75;21.00;;;;;16.04;66.72;101563.50;6216887;22;45427;-74
2022/10/31 02:45:38;;;;;;;;;18.50;17.50;;;;;16.11;66.58;101569.59;6217006;22;45387;-75
2022/10/31 02:48:13;;;;;;;;;22.00;21.00;;;;;15.99;66.71;101541.41;6217305;22;45343;-75
2022/10/31 02:50:45;;;;;;;;;22.00;19.00;;;;;16.07;66.59;101550.16;6189627;22;45661;-75
2022/10/31 02:53:15;;;;;;;;;22.50;22.00;;;;;16.18;66.66;101562.41;6216895;22;45447;-75
2022/10/31 02:55:58;;;;;;;;;24.50;23.50;;;;;16.16;66.72;101553.59;6216408;22;45369;-75
2022/10/31 02:58:29;;;;;;;;;26.50;21.25;;;;;16.05;66.55;101541.31;6216914;22;45208;-74
2022/10/31 03:01:09;;;;;;;;;23.00;23.00;;;;;16.18;66.45;101563.28;6216736;22;45165;-74
2022/10/31 03:03:50;;;;;;;;;23.25;22.75;;;;;16.17;66.83;101563.31;6216551;22;45461;-75
2022/10/31 03:06:33;;;;;;;;;24.25;19.00;;;;;16.10;66.91;101549.25;6216617;22;45147;-75
2022/10/31 03:09:13;;;;;;;;;23.25;21.25;;;;;16.16;66.86;101551.81;6216804;22;45237;-75
2022/10/31 03:11:59;;;;;;;;;22.25;21.25;;;;;16.18;67.02;101559.75;6188731;22;45447;-75
2022/10/31 03:14:36;;;;;;;;;25.00;24.00;;;;;16.10;66.67;101552.78;6216642;22;46342;-75
2022/10/31 03:17:07;;;;;;;;;23.25;21.50;;;;;16.03;66.74;101536.94;6216788;22;45253;-75
2022/10/31 03:19:42;;;;;;;;;27.00;25.50;;;;;15.99;67.16;101517.50;6216118;22;45296;-75
2022/10/31 03:22:23;;;;;;;;;28.25;25.00;;;;;16.16;66.54;101551.81;6216698;22;45440;-75
2022/10/31 03:24:52;;;;;;;;;23.25;22.50;;;;;16.17;66.49;101548.28;6216349;22;45225;-75
2022/10/31 03:27:26;;;;;;;;;20.25;20.25;;;;;16.18;66.89;101543.81;6189297;22;45287;-76
2022/10/31 03:29:55;;;;;;;;;26.25;23.00;;;;;16.10;66.89;101530.66;6216509;22;45194;-75
2022/10/31 03:32:30;;;;;;;;;29.50;25.00;;;;;16.13;66.91;101535.91;6214433;22;45320;-75
2022/10/31 03:34:59;;;;;;;;;24.50;23.00;;;;;16.10;67.09;101533.31;6188878;22;48291;-75
2022/10/31 03:37:27;;;;;;;;;25.25;25.25;;;;;16.03;66.78;101513.03;6216174;22;45236;-75
2022/10/31 03:39:56;;;;;;;;;25.25;23.00;;;;;16.12;66.98;101530.59;6216600;22;45403;-75
2022/10/31 03:42:24;;;;;;;;;23.00;21.25;;;;;16.00;67.09;101503.31;6216149;22;45431;-75
2022/10/31 03:45:20;;;;;;;;;29.75;25.00;;;;;16.15;67.16;101522.63;6188662;22;46451;-75
2022/10/31 03:47:45;;;;;;;;;17.50;16.00;;;;;16.00;66.96;101491.81;6216597;22;45209;-75
2022/10/31 03:50:14;;;;;;;;;26.50;24.25;;;;;16.02;66.94;101498.88;6216894;22;45233;-76
2022/10/31 03:52:48;;;;;;;;;27.75;25.25;;;;;16.13;67.19;101513.78;6216190;22;45469;-75
2022/10/31 03:55:28;;;;;;;;;30.75;28.50;;;;;16.03;66.88;101494.44;6216297;22;46285;-75
2022/10/31 03:58:07;;;;;;;;;29.25;27.25;;;;;16.04;67.04;101504.19;6216703;22;45174;-75
2022/10/31 04:00:34;;;;;;;;;30.00;29.25;;;;;16.02;67.11;101501.53;6216170;22;45241;-75
2022/10/31 04:03:15;;;;;;;;;28.75;28.25;;;;;15.86;67.44;101478.75;6188750;22;45369;-75
2022/10/31 04:05:45;;;;;;;;;32.00;28.50;;;;;15.97;67.15;101507.81;6188459;22;47962;-76
2022/10/31 04:08:16;;;;;;;;;35.25;31.75;;;;;15.86;67.39;101500.84;6215533;22;45390;-76
2022/10/31 04:10:45;;;;;;;;;35.75;30.00;;;;;15.81;67.23;101489.41;6216490;22;45415;-76
2022/10/31 04:13:15;;;;;;;;;32.50;29.00;;;;;15.79;67.38;101493.88;6215917;22;45504;-76
2022/10/31 04:15:43;;;;;;;;;38.50;31.25;;;;;15.78;67.44;101486.81;6216386;22;45367;-76
2022/10/31 04:18:08;;;;;;;;;32.75;30.00;;;;;15.91;67.71;101507.91;6217402;22;45352;-76
2022/10/31 04:20:37;;;;;;;;;35.25;31.75;;;;;15.91;67.70;101516.75;6217136;22;45601;-76
2022/10/31 04:23:03;;;;;;;;;32.25;30.00;;;;;15.74;67.63;101481.56;6217243;22;45195;-76
2022/10/31 04:25:29;;;;;;;;;29.25;27.75;;;;;15.91;67.65;101510.56;6217584;22;46504;-77
2022/10/31 04:27:54;;;;;;;;;30.50;29.25;;;;;15.80;67.55;101492.13;6217643;22;45109;-76
2022/10/31 04:30:19;;;;;;;;;32.50;29.00;;;;;15.85;67.70;101493.81;6190341;22;45348;-76
2022/10/31 04:32:45;;;;;;;;;34.25;29.75;;;;;15.77;67.59;101479.75;6190516;22;45169;-76
2022/10/31 04:35:10;;;;;;;;;34.25;29.75;;;;;15.77;67.92;101484.16;6189966;22;47212;-76
2022/10/31 04:37:35;;;;;;;;;35.25;32.00;;;;;15.83;67.85;101492.06;6217446;22;45097;-76
2022/10/31 04:40:01;;;;;;;;;30.50;29.50;;;;;15.84;68.16;101486.72;6217833;22;45161;-76
2022/10/31 04:42:29;;;;;;;;;30.25;27.50;;;;;15.86;68.00;101487.59;6217440;22;45181;-76
2022/10/31 04:44:55;;;;;;;;;29.25;26.50;;;;;15.80;68.44;101476.19;6189933;22;46148;-77
2022/10/31 04:47:20;;;;;;;;;35.50;30.00;;;;;15.82;67.87;101474.38;6217270;22;45355;-76
2022/10/31 04:49:45;;;;;;;;;32.25;26.50;;;;;15.80;67.98;101461.13;6217875;22;45253;-75
2022/10/31 04:52:11;;;;;;;;;28.50;26.25;;;;;15.81;67.97;101465.53;6217563;22;45180;-77
2022/10/31 04:54:36;;;;;;;;;35.25;31.00;;;;;15.72;68.12;101451.53;6217509;22;45375;-77
2022/10/31 04:57:01;;;;;;;;;31.00;27.50;;;;;15.81;68.26;101452.25;6190540;22;45400;-76
2022/10/31 04:59:27;;;;;;;;;27.25;26.25;;;;;15.82;68.35;101455.78;6217537;22;45542;-76
2022/10/31 05:01:52;;;;;;;;;31.75;30.00;;;;;15.66;68.51;101433.84;6190185;22;45284;-76
2022/10/31 05:04:17;;;;;;;;;27.25;26.75;;;;;15.77;68.52;101445.25;6217374;22;46684;-76
2022/10/31 05:06:43;;;;;;;;;29.50;28.00;;;;;15.82;68.58;101442.50;6217372;22;45149;-75
2022/10/31 05:09:08;;;;;;;;;29.25;25.00;;;;;15.73;68.72;101424.06;6217406;22;45111;-76
2022/10/31 05:11:33;;;;;;;;;31.50;26.50;;;;;15.75;68.69;101428.44;6190082;22;45493;-76
2022/10/31 05:13:59;;;;;;;;;30.25;29.75;;;;;15.81;68.56;101435.44;6217300;22;46408;-76
2022/10/31 05:16:24;;;;;;;;;32.50;30.25;;;;;15.86;68.55;101444.22;6217202;22;45221;-76
2022/10/31 05:18:49;;;;;;;;;27.75;26.25;;;;;15.85;68.59;101435.38;6217436;22;45208;-76
2022/10/31 05:21:15;;;;;;;;;30.50;27.25;;;;;15.93;68.36;101443.25;6216853;22;45423;-76
2022/10/31 05:23:40;;;;;;;;;28.50;26.25;;;;;15.86;68.81;101429.16;6189643;22;46743;-76
2022/10/31 05:26:06;;;;;;;;;33.75;29.75;;;;;15.83;68.61;101421.25;6217151;22;45213;-76
2022/10/31 05:28:31;;;;;;;;;29.75;27.00;;;;;15.88;68.60;101424.72;6190355;22;45182;-76
2022/10/31 05:30:56;;;;;;;;;35.75;29.50;;;;;15.96;68.22;101437.88;6189742;22;45206;-76
2022/10/31 05:33:22;;;;;;;;;30.50;28.50;;;;;15.88;68.81;101418.53;6217352;22;45365;-76
2022/10/31 05:35:47;;;;;;;;;31.25;28.25;;;;;15.89;68.45;101414.97;6190069;22;45222;-77
2022/10/31 05:38:13;;;;;;;;;29.50;26.75;;;;;15.94;68.22;101418.44;6189851;22;45365;-77
2022/10/31 05:40:38;;;;;;;;;30.00;27.50;;;;;15.98;68.24;101421.91;6217241;22;45467;-76
2022/10/31 05:43:03;;;;;;;;;32.25;29.75;;;;;15.89;69.04;101409.66;6216959;22;45316;-76
2022/10/31 05:45:29;;;;;;;;;34.00;32.00;;;;;15.91;68.58;101413.19;6189726;22;45284;-76
2022/10/31 05:47:56;;;;;;;;;31.25;29.50;;;;;15.86;68.98;101394.66;6217233;22;45277;-76
2022/10/31 05:50:22;;;;;;;;;26.25;25.25;;;;;15.92;68.55;101409.59;6217130;22;45357;-77
2022/10/31 05:52:58;;;;;;;;;35.00;30.00;;;;;15.96;68.80;101413.06;6216861;22;45282;-76
2022/10/31 05:55:24;;;;;;;;;32.25;29.75;;;;;15.90;68.74;101403.44;6217298;22;45158;-76
2022/10/31 05:57:50;;;;;;;;;33.00;29.75;;;;;16.04;68.92;101419.19;6217421;22;45372;-76
2022/10/31 06:00:15;;;;;;;;;32.25;30.25;;;;;16.02;68.64;101415.66;6216905;22;45173;-76
2022/10/31 06:02:40;;;;;;;;;26.50;25.25;;;;;15.96;68.68;101398.06;6189958;22;47321;-76
2022/10/31 06:05:06;;;;;;;;;25.25;22.50;;;;;15.93;68.45;101398.09;6189656;22;45325;-76
2022/10/31 06:07:33;;;;;;;;;27.25;25.00;;;;;15.88;68.87;101382.22;6217331;22;45217;-76
2022/10/31 06:09:59;;;;;;;;;32.00;28.50;;;;;15.96;68.58;101394.50;6189382;22;45289;-76
2022/10/31 06:12:24;;;;;;;;;27.50;24.50;;;;;16.03;68.97;101401.47;6217040;22;45355;-76
2022/10/31 06:14:50;;;;;;;;;28.50;25.00;;;;;15.87;68.73;101374.28;6189444;22;45371;-76
2022/10/31 06:17:15;;;;;;;;;31.50;28.00;;;;;15.98;69.01;101392.69;6217178;22;45310;-76
2022/10/31 06:19:41;;;;;;;;;26.50;25.50;;;;;15.99;69.11;101391.81;6189221;22;45359;-76
2022/10/31 06:22:06;;;;;;;;;25.25;23.25;;;;;15.96;69.16;101382.13;6217104;22;46333;-76
2022/10/31 06:24:31;;;;;;;;;24.25;22.50;;;;;16.00;68.82;101386.47;6216595;22;45377;-76
2022/10/31 06:26:57;;;;;;;;;24.25;22.25;;;;;16.05;69.00;101384.63;6189963;22;45206;-76
2022/10/31 06:29:22;;;;;;;;;26.75;24.50;;;;;15.96;68.89;101373.25;6216588;22;45350;-76
2022/10/31 06:31:50;;;;;;;;;27.50;22.75;;;;;15.93;69.01;101370.66;6189660;22;47366;-76
2022/10/31 06:34:15;;;;;;;;;23.75;21.50;;;;;16.01;68.95;101384.69;6217271;22;45157;-76
2022/10/31 06:36:41;;;;;;;;;28.75;24.00;;;;;16.04;68.75;101382.00;6217060;22;45367;-77
2022/10/31 06:39:06;;;;;;;;;26.75;25.00;;;;;15.98;68.68;101364.34;6188104;22;45223;-77
2022/10/31 06:41:31;;;;;;;;;29.00;25.00;;;;;16.03;68.85;101370.47;6216805;22;46591;-76
2022/10/31 06:43:57;;;;;;;;;24.50;23.50;;;;;16.07;68.86;101371.31;6217050;22;45083;-76
2022/10/31 06:46:22;;;;;;;;;24.25;21.75;;;;;16.10;68.55;101377.44;6216962;22;45115;-76
2022/10/31 06:48:47;;;;;;;;;27.50;23.75;;;;;16.01;68.96;101350.16;6216949;22;45392;-76
2022/10/31 06:51:13;;;;;;;;;23.75;21.50;;;;;16.10;68.94;101358.84;6216944;22;46577;-77
2022/10/31 06:53:39;;;;;;;;;24.00;22.75;;;;;16.00;68.78;101335.13;6216250;22;45277;-76
2022/10/31 06:56:05;;;;;;;;;24.00;21.75;;;;;16.01;69.05;101348.41;6189474;22;45324;-76
2022/10/31 06:58:30;;;;;;;;;22.00;21.50;;;;;16.01;68.97;101348.41;6216277;22;45269;-76
2022/10/31 07:00:59;;;;;;;;;19.00;18.00;;;;;16.10;68.88;101369.47;6216236;22;45398;-76
2022/10/31 07:03:24;;;;;;;;;18.25;17.50;;;;;16.05;68.60;101351.88;6216383;22;45230;-76
2022/10/31 07:05:49;;;;;;;;;25.25;23.50;;;;;16.07;68.99;101350.94;6216775;22;45387;-76
2022/10/31 07:08:15;;;;;;;;;22.75;20.25;;;;;16.12;68.68;101350.88;6216698;22;45143;-76
2022/10/31 07:10:41;;;;;;;;;25.50;22.25;;;;;16.20;68.78;101362.25;6216715;22;45258;-76
2022/10/31 07:13:14;;;;;;;;;22.25;21.25;;;;;16.15;68.74;101347.28;6216834;22;45272;-77
2022/10/31 07:15:41;;;;;;;;;26.50;21.00;;;;;16.18;68.71;101349.88;6216016;22;45158;-76
2022/10/31 07:18:10;;;;;;;;;21.25;19.25;;;;;16.21;68.80;101357.81;6216591;22;45138;-76
2022/10/31 07:20:35;;;;;;;;;22.00;22.00;;;;;16.18;69.03;101349.88;6188991;22;47345;-76
2022/10/31 07:23:01;;;;;;;;;25.25;22.75;;;;;16.24;68.88;101355.97;6216316;22;45762;-76
2022/10/31 07:25:27;;;;;;;;;22.75;21.00;;;;;16.21;68.84;101341.84;6216945;22;45354;-75
2022/10/31 07:27:53;;;;;;;;;24.75;22.25;;;;;16.27;68.87;101349.72;6216459;22;45274;-76
2022/10/31 07:30:18;;;;;;;;;24.25;21.50;;;;;16.42;68.68;101362.75;6216268;22;46452;-77
2022/10/31 07:32:46;;;;;;;;;21.50;20.75;;;;;16.29;68.61;101348.78;6188720;22;45174;-76
2022/10/31 07:35:17;;;;;;;;;18.50;17.25;;;;;16.26;68.58;101340.88;6216710;22;45114;-76
2022/10/31 07:37:42;;;;;;;;;17.75;17.25;;;;;16.33;68.74;101349.59;6188878;22;45281;-76
2022/10/31 07:40:08;;;;;;;;;19.75;17.00;;;;;16.40;68.70;101350.38;6188919;22;47811;-76
2022/10/31 07:42:35;;;;;;;;;19.25;18.50;;;;;16.35;68.71;101330.97;6216145;22;45169;-76
2022/10/31 07:45:01;;;;;;;;;26.25;20.75;;;;;16.42;68.51;101349.44;6216471;22;45237;-77
2022/10/31 07:47:26;;;;;;;;;27.25;24.75;;;;;16.47;68.52;101363.53;6216300;22;45139;-76
2022/10/31 07:49:51;;;;;;;;;28.25;26.75;;;;;16.49;68.55;101351.09;6216393;22;45302;-76
2022/10/31 07:52:17;;;;;;;;;22.75;22.25;;;;;16.50;68.50;101347.53;6217504;22;45178;-76
2022/10/31 07:54:42;;;;;;;;;20.50;19.25;;;;;16.49;68.48;101345.78;6217880;22;45409;-77
2022/10/31 07:57:07;;;;;;;;;26.25;22.25;;;;;16.49;68.29;101340.47;6217703;22;45245;-76
2022/10/31 07:59:33;;;;;;;;;22.75;21.75;;;;;16.61;68.32;101363.28;6217466;22;45553;-76
2022/10/31 08:01:58;;;;;;;;;21.50;20.50;;;;;16.51;68.20;101335.97;6217663;22;45335;-76
2022/10/31 08:04:23;;;;;;;;;21.75;21.00;;;;;16.56;68.34;101335.03;6217820;22;45279;-77
2022/10/31 08:06:49;;;;;;;;;18.50;17.50;;;;;16.60;68.29;101334.94;6217505;22;45470;-76
2022/10/31 08:09:14;;;;;;;;;22.25;21.75;;;;;16.65;68.49;101341.06;6217137;22;45312;-77
2022/10/31 08:11:39;;;;;;;;;24.00;22.25;;;;;16.69;68.36;101334.75;6217340;22;45375;-76
2022/10/31 08:14:05;;;;;;;;;20.50;18.50;;;;;16.74;68.56;101342.66;6217516;22;45400;-76
2022/10/31 08:16:30;;;;;;;;;16.50;16.50;;;;;16.74;68.08;101332.00;6217073;22;45371;-76
2022/10/31 08:18:56;;;;;;;;;21.00;19.25;;;;;16.71;67.89;101329.41;6216910;22;46487;-77
2022/10/31 08:21:21;;;;;;;;;19.00;19.00;;;;;16.70;68.00;101320.53;6217222;22;45381;-76
2022/10/31 08:23:47;;;;;;;;;21.00;21.00;;;;;16.86;68.13;101341.56;6189767;22;45210;-77
2022/10/31 08:26:12;;;;;;;;;22.00;20.75;;;;;16.85;68.24;101327.38;6189198;22;45361;-77
2022/10/31 08:28:37;;;;;;;;;21.25;19.50;;;;;16.86;68.02;101321.16;6217191;22;45311;-76
2022/10/31 08:31:03;;;;;;;;;17.00;16.75;;;;;16.90;67.57;101320.19;6217036;22;45222;-76
2022/10/31 08:33:28;;;;;;;;;23.25;20.75;;;;;16.92;67.88;101309.50;6190037;22;45225;-76
2022/10/31 08:35:53;;;;;;;;;22.50;20.00;;;;;16.92;67.61;101305.09;6188871;22;45238;-76
2022/10/31 08:38:19;;;;;;;;;23.75;22.25;;;;;16.96;67.79;101300.56;6189939;22;46919;-75
2022/10/31 08:40:48;;;;;;;;;28.00;23.25;;;;;16.96;67.71;101297.91;6217291;22;45108;-76
2022/10/31 08:43:16;;;;;;;;;23.75;23.75;;;;;16.85;67.34;101282.16;6189861;22;45237;-76
2022/10/31 08:45:42;;;;;;;;;20.00;20.00;;;;;16.94;67.65;101278.44;6216987;22;45293;-76
2022/10/31 08:48:13;;;;;;;;;20.25;19.75;;;;;16.95;67.98;101275.75;6216914;22;45237;-76
2022/10/31 08:50:38;;;;;;;;;24.75;19.50;;;;;17.02;67.76;101287.13;6216987;22;45423;-76
2022/10/31 08:53:11;;;;;;;;;23.00;21.25;;;;;17.06;67.93;101278.19;6216760;22;45371;-76
2022/10/31 08:55:37;;;;;;;;;18.50;18.00;;;;;17.10;67.88;101258.56;6189565;22;45552;-76
2022/10/31 08:58:05;;;;;;;;;21.50;19.50;;;;;17.21;67.70;101258.31;6189395;22;48454;-77
2022/10/31 09:00:31;;;;;;;;;25.00;20.75;;;;;17.42;67.37;101268.47;6216510;22;45256;-76
2022/10/31 09:03:00;;;;;;;;;19.75;18.00;;;;;17.48;67.19;101246.19;6216740;22;45447;-76
2022/10/31 09:05:25;;;;;;;;;22.25;20.25;;;;;17.57;67.14;101245.94;6216641;22;45180;-77
2022/10/31 09:07:51;;;;;;;;;22.00;20.50;;;;;17.69;67.04;101247.41;6216519;22;45391;-76
2022/10/31 09:10:16;;;;;;;;;26.00;23.25;;;;;17.74;67.04;101233.97;6189362;22;45173;-76
2022/10/31 09:12:41;;;;;;;;;22.75;21.75;;;;;17.89;66.60;101238.09;6216972;22;45248;-76
2022/10/31 09:15:07;;;;;;;;;20.25;18.00;;;;;17.97;66.12;101239.63;6216680;22;45341;-76
2022/10/31 09:17:33;;;;;;;;;20.25;19.75;;;;;18.06;66.22;101236.69;6216656;22;45358;-76
2022/10/31 09:19:58;;;;;;;;;24.00;20.50;;;;;18.15;65.74;101232.03;6216246;22;45319;-76
2022/10/31 09:22:23;;;;;;;;;24.75;21.50;;;;;18.23;65.51;101214.94;6216962;22;45345;-77
2022/10/31 09:24:49;;;;;;;;;24.00;19.50;;;;;18.34;65.57;101214.63;6216075;22;45379;-77
2022/10/31 09:27:14;;;;;;;;;28.25;24.25;;;;;18.43;65.35;101210.81;6216532;22;46571;-76
2022/10/31 09:29:40;;;;;;;;;21.25;19.75;;;;;18.55;64.83;101207.81;6189006;22;45198;-76
2022/10/31 09:32:05;;;;;;;;;27.25;23.50;;;;;18.62;64.51;101206.69;6216907;22;45277;-76
2022/10/31 09:34:30;;;;;;;;;22.00;20.75;;;;;18.67;64.29;101203.91;6217084;22;45249;-76
2022/10/31 09:36:56;;;;;;;;;25.00;23.25;;;;;18.76;64.46;101194.78;6188339;22;46598;-77
2022/10/31 09:39:21;;;;;;;;;23.75;19.75;;;;;18.83;63.84;101183.00;6216643;22;45468;-76
2022/10/31 09:42:34;;;;;;;;;25.50;21.50;;;;;18.97;63.68;101179.91;6216592;22;45256;-76
2022/10/31 09:44:59;;;;;;;;;22.25;21.75;;;;;19.13;63.52;101199.84;6214399;22;45390;-76
2022/10/31 09:47:25;;;;;;;;;23.50;22.00;;;;;19.22;63.10;101191.56;6216371;22;45343;-78
2022/10/31 09:50:08;;;;;;;;;23.75;22.25;;;;;19.33;62.71;101186.72;6188669;22;45202;-78
2022/10/31 09:52:40;;;;;;;;;23.50;23.25;;;;;19.39;62.32;101174.97;6188445;22;45234;-78
2022/10/31 09:55:15;;;;;;;;;23.75;22.75;;;;;19.52;62.26;101170.97;6188485;22;45439;-78
2022/10/31 09:57:42;;;;;;;;;24.75;23.00;;;;;19.64;61.81;101174.13;6216036;22;45178;-78
2022/10/31 10:00:16;;;;;;;;;23.00;21.50;;;;;19.73;62.06;101169.38;6216022;22;45162;-78
2022/10/31 10:02:50;;;;;;;;;21.50;20.00;;;;;19.74;61.75;101164.91;6189046;22;45196;-78
2022/10/31 10:05:24;;;;;;;;;16.75;16.75;;;;;19.78;61.04;101163.84;6216006;22;45188;-78
2022/10/31 10:08:00;;;;;;;;;19.75;17.00;;;;;19.81;60.77;101161.97;6188530;22;47096;-79
2022/10/31 10:10:38;;;;;;;;;17.75;16.25;;;;;19.97;60.87;101169.44;6216015;22;45221;-78
2022/10/31 10:13:12;;;;;;;;;24.25;21.00;;;;;20.13;60.70;101154.59;6187816;22;45384;-79
2022/10/31 10:15:56;;;;;;;;;20.50;17.50;;;;;20.31;60.75;101157.50;6187453;22;45373;-78
2022/10/31 10:18:55;;;;;;;;;16.75;16.75;;;;;20.43;59.88;101144.53;6188806;22;46161;-78
2022/10/31 10:21:45;;;;;;;;;18.25;17.50;;;;;20.47;59.58;101127.44;6216103;22;45304;-79
2022/10/31 10:24:16;;;;;;;;;15.75;13.25;;;;;20.49;59.29;101109.50;6215830;22;45220;-79
2022/10/31 10:26:46;;;;;;;;;17.75;15.50;;;;;20.32;58.79;101095.94;6215828;22;45284;-78
2022/10/31 10:29:42;;;;;;;;;22.00;19.00;;;;;20.28;58.99;101102.31;6187926;22;46523;-79
2022/10/31 10:32:23;;;;;;;;;18.50;17.25;;;;;20.19;59.41;101098.22;6184798;22;45856;-78
2022/10/31 10:35:02;;;;;;;;;20.25;17.75;;;;;20.15;58.96;101099.25;6187828;22;45285;-78
2022/10/31 10:37:40;;;;;;;;;15.50;15.50;;;;;20.06;59.11;101094.25;6187630;22;45421;-78
2022/10/31 10:40:15;;;;;;;;;19.33;15.00;;;;;20.16;58.88;101089.44;6215608;22;45272;-79
2022/10/31 10:48:36;;;;;;;;;18.25;18.25;;;;;20.41;58.41;101086.69;6215966;22;45212;-78
2022/10/31 10:51:06;;;;;;;;;21.00;18.75;;;;;20.39;58.30;101069.81;6215710;22;45197;-79
2022/10/31 10:54:13;;;;;;;;;20.25;14.25;;;;;20.62;58.04;101069.81;6215406;22;45425;-78
2022/10/31 10:56:55;;;;;;;;;16.50;15.75;;;;;20.99;57.71;101046.03;6188919;22;45237;-79
2022/10/31 10:59:22;;;;;;;;;17.00;15.75;;;;;21.56;57.44;101028.38;6215853;22;45428;-79
2022/10/31 11:01:51;;;;;;;;;15.25;13.00;;;;;22.18;56.14;101011.22;6215733;22;45395;-79
2022/10/31 11:04:28;;;;;;;;;19.00;16.25;;;;;22.40;55.26;100986.91;6215803;22;45201;-78
2022/10/31 11:07:06;;;;;;;;;21.00;18.00;;;;;22.60;54.37;100968.94;6216104;22;45390;-77
2022/10/31 11:09:32;;;;;;;;;15.67;15.33;;;;;23.05;54.18;100981.00;6212914;22;45460;-78
2022/10/31 11:11:59;;;;;;;;;14.00;13.67;;;;;24.37;54.10;100969.28;6188417;22;47263;-78
2022/10/31 11:14:26;;;;;;;;;12.00;12.00;;;;;26.05;52.13;100978.00;6188033;22;45218;-78
2022/10/31 11:17:08;;;;;;;;;17.75;16.75;;;;;27.37;49.95;100974.50;6215903;22;45194;-77
2022/10/31 11:19:33;;;;;;;;;16.25;13.50;;;;;28.47;47.47;100969.25;6187684;22;45221;-78
2022/10/31 11:22:07;;;;;;;;;13.50;13.50;;;;;29.22;45.05;100977.03;6188277;22;46976;-78
2022/10/31 11:24:39;;;;;;;;;14.33;13.00;;;;;29.98;43.60;100982.75;6216857;22;45214;-78